Time;durP1;ratioP1;P1;durP2;ratioP2;P2;SDS_P1;SDS_P2;PMS_P1;PMS_P2;Temp;Humidity;BMP_temperature;BMP_pressure;BME280_temperature;BME280_humidity;BME280_pressure;Samples;Min_cycle;Max_cycle;Signal;HPM_P1;HPM_P2
2023/10/31 02:13:22;;;;;;;;;;;14.30;99.90;;;;;;2617272;39;20460;-74
2023/10/31 02:18:34;;;;;;;;;;;12.30;99.90;;;;;;2617385;54;20674;-82
2023/10/31 02:21:03;;;;;;;;;;;12.30;99.90;;;;;;2630319;47;19950;-82
2023/10/31 02:23:36;;;;;;;;;;;12.30;99.90;;;;;;2629322;54;19941;-81
2023/10/31 02:26:06;;;;;;;;;;;12.20;99.90;;;;;;2628952;47;19927;-81
2023/10/31 02:28:36;;;;;;;;;;;12.50;99.90;;;;;;2630194;47;19943;-82
2023/10/31 02:31:06;;;;;;;;;;;12.20;99.90;;;;;;2630156;54;19957;-81
2023/10/31 02:33:36;;;;;;;;;;;12.20;99.90;;;;;;2630047;54;19943;-82
2023/10/31 02:36:06;;;;;;;;;;;12.20;99.90;;;;;;2630350;54;19950;-82
2023/10/31 02:38:38;;;;;;;;;;;12.20;99.90;;;;;;2630065;46;19966;-82
2023/10/31 02:41:08;;;;;;;;;;;12.10;99.90;;;;;;2630113;54;19943;-81
2023/10/31 02:43:38;;;;;;;;;;;12.20;99.90;;;;;;2629575;47;19946;-82
2023/10/31 02:46:08;;;;;;;;;;;12.10;99.90;;;;;;2630597;47;19943;-81
2023/10/31 02:48:41;;;;;;;;;;;12.10;99.90;;;;;;2630575;47;19978;-82
2023/10/31 02:51:11;;;;;;;;;;;12.40;99.90;;;;;;2630537;54;19950;-81
2023/10/31 02:53:44;;;;;;;;;;;12.00;99.90;;;;;;2630340;47;19943;-81
2023/10/31 02:56:13;;;;;;;;;;;12.00;99.90;;;;;;2630220;47;19975;-81
2023/10/31 02:58:43;;;;;;;;;;;11.90;99.90;;;;;;2630533;54;19973;-82
2023/10/31 03:01:13;;;;;;;;;;;11.90;99.90;;;;;;2629815;54;19951;-81
2023/10/31 03:03:43;;;;;;;;;;;11.90;99.90;;;;;;2630150;54;19965;-82
2023/10/31 03:06:13;;;;;;;;;;;11.90;99.90;;;;;;2630272;54;19938;-82
2023/10/31 03:08:45;;;;;;;;;;;11.90;99.90;;;;;;2630226;47;19938;-82
2023/10/31 03:11:23;;;;;;;;;;;11.80;99.90;;;;;;2630360;46;19962;-81
2023/10/31 03:13:53;;;;;;;;;;;11.70;99.90;;;;;;2629833;46;19950;-81
2023/10/31 03:16:23;;;;;;;;;;;11.70;99.90;;;;;;2629829;54;19969;-81
2023/10/31 03:18:53;;;;;;;;;;;11.60;99.90;;;;;;2629795;54;19970;-80
2023/10/31 03:21:24;;;;;;;;;;;11.60;99.90;;;;;;2629093;47;19953;-81
2023/10/31 03:23:56;;;;;;;;;;;11.60;99.90;;;;;;2629558;54;19942;-80
2023/10/31 03:26:26;;;;;;;;;;;11.60;99.90;;;;;;2629354;54;19938;-79
2023/10/31 03:28:57;;;;;;;;;;;11.50;99.90;;;;;;2630157;54;19938;-79
2023/10/31 03:31:27;;;;;;;;;;;11.50;99.90;;;;;;2630164;54;19938;-80
2023/10/31 03:33:57;;;;;;;;;;;11.50;99.90;;;;;;2629888;54;20489;-81
2023/10/31 03:36:27;;;;;;;;;;;11.50;99.90;;;;;;2630049;47;19951;-81
2023/10/31 03:38:59;;;;;;;;;;;11.40;99.90;;;;;;2630120;54;19934;-79
2023/10/31 03:41:29;;;;;;;;;;;11.50;99.90;;;;;;2630398;46;20563;-80
2023/10/31 03:43:59;;;;;;;;;;;11.50;99.90;;;;;;2629931;47;19926;-79
2023/10/31 03:46:29;;;;;;;;;;;11.50;99.90;;;;;;2629929;47;19949;-80
2023/10/31 03:48:59;;;;;;;;;;;11.50;99.90;;;;;;2630283;54;19943;-80
2023/10/31 03:51:28;;;;;;;;;;;11.40;99.90;;;;;;2630223;47;19950;-81
2023/10/31 03:54:01;;;;;;;;;;;11.50;99.90;;;;;;2630075;47;19956;-81
2023/10/31 03:56:31;;;;;;;;;;;11.50;99.90;;;;;;2629709;54;19942;-80
2023/10/31 03:59:01;;;;;;;;;;;11.60;99.90;;;;;;2630191;54;19950;-81
2023/10/31 04:01:31;;;;;;;;;;;11.50;99.90;;;;;;2630139;54;19979;-80
2023/10/31 04:04:00;;;;;;;;;;;11.60;99.90;;;;;;2630220;47;19943;-81
2023/10/31 04:06:30;;;;;;;;;;;11.60;99.90;;;;;;2630153;54;19942;-81
2023/10/31 04:09:03;;;;;;;;;;;11.70;99.90;;;;;;2629628;47;19966;-81
2023/10/31 04:11:33;;;;;;;;;;;11.70;99.90;;;;;;2629916;54;19967;-81
2023/10/31 04:14:03;;;;;;;;;;;11.80;99.90;;;;;;2629428;47;19953;-80
2023/10/31 04:16:33;;;;;;;;;;;11.80;99.90;;;;;;2629423;54;19926;-80
2023/10/31 04:19:04;;;;;;;;;;;11.90;99.90;;;;;;2629904;54;19947;-81
2023/10/31 04:21:34;;;;;;;;;;;11.80;99.90;;;;;;2629567;54;19949;-81
2023/10/31 04:24:07;;;;;;;;;;;11.80;99.90;;;;;;2629702;54;19939;-80
2023/10/31 04:26:37;;;;;;;;;;;11.80;99.90;;;;;;2629789;54;19943;-81
2023/10/31 04:29:07;;;;;;;;;;;11.80;99.90;;;;;;2630026;47;20445;-80
2023/10/31 04:31:39;;;;;;;;;;;11.80;99.90;;;;;;2631492;39;20438;-80
2023/10/31 04:34:13;;;;;;;;;;;11.80;99.90;;;;;;2630153;47;19927;-81
2023/10/31 04:36:43;;;;;;;;;;;11.80;99.90;;;;;;2630124;54;20524;-80
2023/10/31 04:39:16;;;;;;;;;;;11.80;99.90;;;;;;2630270;47;19957;-80
2023/10/31 04:41:45;;;;;;;;;;;11.80;99.90;;;;;;2630388;39;20386;-79
2023/10/31 04:44:16;;;;;;;;;;;11.90;99.90;;;;;;2629888;54;21995;-81
2023/10/31 04:46:47;;;;;;;;;;;11.90;99.90;;;;;;2630227;54;20527;-81
2023/10/31 04:49:17;;;;;;;;;;;11.90;99.90;;;;;;2631095;46;19942;-80
2023/10/31 04:51:47;;;;;;;;;;;11.80;99.90;;;;;;2630813;47;20015;-80
2023/10/31 04:54:20;;;;;;;;;;;11.80;99.90;;;;;;2627507;54;19950;-79
2023/10/31 04:56:50;;;;;;;;;;;11.90;99.90;;;;;;2627103;46;19954;-78
2023/10/31 04:59:20;;;;;;;;;;;11.80;99.90;;;;;;2627643;46;19953;-81
2023/10/31 05:01:55;;;;;;;;;;;11.80;99.90;;;;;;2627417;47;19958;-80
2023/10/31 05:04:25;;;;;;;;;;;11.80;99.90;;;;;;2627735;47;19945;-80
2023/10/31 05:06:55;;;;;;;;;;;11.90;99.90;;;;;;2629927;46;19951;-81
2023/10/31 05:09:28;;;;;;;;;;;13.50;99.90;;;;;;2629395;47;20609;-81
2023/10/31 05:12:03;;;;;;;;;;;11.90;99.90;;;;;;2629523;47;19950;-81
2023/10/31 05:14:35;;;;;;;;;;;11.90;99.90;;;;;;2628481;46;20035;-81
2023/10/31 05:17:05;;;;;;;;;;;11.90;99.90;;;;;;2624312;46;19947;-74
2023/10/31 05:19:35;;;;;;;;;;;11.90;99.90;;;;;;2615851;54;19946;-77
2023/10/31 05:22:05;;;;;;;;;;;11.90;99.90;;;;;;2615889;54;19950;-74
2023/10/31 05:24:37;;;;;;;;;;;11.90;99.90;;;;;;2615995;47;19938;-75
2023/10/31 05:27:08;;;;;;;;;;;11.90;99.90;;;;;;2615788;54;19939;-74
2023/10/31 05:29:37;;;;;;;;;;;11.90;99.90;;;;;;2614757;54;19935;-75
2023/10/31 05:32:07;;;;;;;;;;;11.90;99.90;;;;;;2615624;54;19938;-76
2023/10/31 05:34:37;;;;;;;;;;;11.90;99.90;;;;;;2611668;48;19939;-75
2023/10/31 05:37:08;;;;;;;;;;;11.90;99.90;;;;;;2614205;54;19946;-76
2023/10/31 05:39:42;;;;;;;;;;;12.00;99.90;;;;;;2612602;54;19939;-77
2023/10/31 05:42:12;;;;;;;;;;;12.00;99.90;;;;;;2615187;47;19951;-75
2023/10/31 05:44:42;;;;;;;;;;;12.00;99.90;;;;;;2613862;39;20368;-74
2023/10/31 05:47:12;;;;;;;;;;;12.00;99.90;;;;;;2615854;54;19974;-75
2023/10/31 05:49:42;;;;;;;;;;;12.00;99.90;;;;;;2614400;47;19954;-75
2023/10/31 05:52:11;;;;;;;;;;;12.00;99.90;;;;;;2615376;54;20485;-75
2023/10/31 05:54:44;;;;;;;;;;;12.00;99.90;;;;;;2615994;53;20041;-75
2023/10/31 05:57:13;;;;;;;;;;;12.00;99.90;;;;;;2615603;47;19958;-74
2023/10/31 05:59:43;;;;;;;;;;;12.00;99.90;;;;;;2614382;47;19939;-74
2023/10/31 06:02:13;;;;;;;;;;;12.00;99.90;;;;;;2613863;47;19947;-74
2023/10/31 06:04:42;;;;;;;;;;;12.00;99.90;;;;;;2613835;54;19957;-75
2023/10/31 06:07:12;;;;;;;;;;;12.00;99.90;;;;;;2614585;47;20688;-75
2023/10/31 06:09:45;;;;;;;;;;;12.00;99.90;;;;;;2615402;54;20452;-75
2023/10/31 06:12:14;;;;;;;;;;;12.00;99.90;;;;;;2614392;39;20013;-75
2023/10/31 06:14:44;;;;;;;;;;;12.00;99.90;;;;;;2611994;54;19969;-75
2023/10/31 06:17:14;;;;;;;;;;;12.00;99.90;;;;;;2610089;54;19946;-75
2023/10/31 06:19:45;;;;;;;;;;;12.00;99.90;;;;;;2614560;54;19950;-76
2023/10/31 06:22:16;;;;;;;;;;;12.00;99.90;;;;;;2616298;47;20475;-76
2023/10/31 06:24:48;;;;;;;;;;;12.00;99.90;;;;;;2615393;54;19969;-75
2023/10/31 06:27:18;;;;;;;;;;;12.10;99.90;;;;;;2615610;47;20438;-77
2023/10/31 06:29:47;;;;;;;;;;;12.10;99.90;;;;;;2618778;54;19954;-77
2023/10/31 06:32:34;;;;;;;;;;;12.10;99.90;;;;;;2608540;47;19962;-79
2023/10/31 06:35:04;;;;;;;;;;;12.10;99.90;;;;;;2596393;54;19946;-78
2023/10/31 06:37:35;;;;;;;;;;;12.10;99.90;;;;;;2600513;46;19962;-78
2023/10/31 06:40:09;;;;;;;;;;;12.10;99.90;;;;;;2599908;54;19950;-78
2023/10/31 06:42:38;;;;;;;;;;;12.10;99.90;;;;;;2604767;54;19950;-79
2023/10/31 06:45:09;;;;;;;;;;;12.10;99.90;;;;;;2604280;54;20063;-78
2023/10/31 06:47:38;;;;;;;;;;;12.10;99.90;;;;;;2604067;39;20445;-77
2023/10/31 06:50:10;;;;;;;;;;;12.10;99.90;;;;;;2602668;54;21144;-77
2023/10/31 06:52:40;;;;;;;;;;;12.10;99.90;;;;;;2603927;54;20754;-76
2023/10/31 06:55:12;;;;;;;;;;;12.10;99.90;;;;;;2604225;47;19950;-78
2023/10/31 06:57:42;;;;;;;;;;;12.10;99.90;;;;;;2603782;54;19994;-78
2023/10/31 07:00:14;;;;;;;;;;;12.10;99.90;;;;;;2602544;54;19994;-80
2023/10/31 07:02:44;;;;;;;;;;;12.10;99.90;;;;;;2603948;47;19958;-78
2023/10/31 07:05:15;;;;;;;;;;;12.10;99.90;;;;;;2601437;47;19957;-78
2023/10/31 07:07:45;;;;;;;;;;;12.00;99.90;;;;;;2601288;47;19950;-77
2023/10/31 07:10:17;;;;;;;;;;;12.00;99.90;;;;;;2602517;47;20476;-79
2023/10/31 07:12:49;;;;;;;;;;;12.10;99.90;;;;;;2599288;51;20568;-65
2023/10/31 07:15:19;;;;;;;;;;;12.10;99.90;;;;;;2594344;54;19962;-69
2023/10/31 07:17:48;;;;;;;;;;;11.90;99.90;;;;;;2598401;39;20353;-68
2023/10/31 07:20:18;;;;;;;;;;;12.10;99.90;;;;;;2598307;54;20082;-66
2023/10/31 07:22:48;;;;;;;;;;;12.10;99.90;;;;;;2598057;54;19985;-69
2023/10/31 07:25:20;;;;;;;;;;;12.10;99.90;;;;;;2598008;46;19970;-68
2023/10/31 07:27:50;;;;;;;;;;;12.20;99.90;;;;;;2596036;54;19958;-69
2023/10/31 07:30:20;;;;;;;;;;;12.20;99.90;;;;;;2598076;39;20373;-70
2023/10/31 07:32:49;;;;;;;;;;;12.20;99.90;;;;;;2598718;54;19938;-70
2023/10/31 07:35:20;;;;;;;;;;;12.20;99.90;;;;;;2597167;54;19997;-70
2023/10/31 07:37:49;;;;;;;;;;;12.20;99.90;;;;;;2599375;47;19950;-70
2023/10/31 07:40:22;;;;;;;;;;;12.30;99.90;;;;;;2597309;47;19951;-75
2023/10/31 07:42:51;;;;;;;;;;;12.30;99.90;;;;;;2599302;54;19946;-74
2023/10/31 07:45:21;;;;;;;;;;;12.30;99.90;;;;;;2598235;47;19954;-73
2023/10/31 07:47:51;;;;;;;;;;;12.30;99.90;;;;;;2598534;54;20488;-76
2023/10/31 07:50:21;;;;;;;;;;;12.30;99.90;;;;;;2598280;47;19958;-76
2023/10/31 07:52:50;;;;;;;;;;;12.30;99.90;;;;;;2600807;54;19956;-76
2023/10/31 07:55:23;;;;;;;;;;;12.30;99.90;;;;;;2599572;47;20078;-75
2023/10/31 07:57:53;;;;;;;;;;;12.30;99.90;;;;;;2601995;54;20449;-77
2023/10/31 08:00:23;;;;;;;;;;;12.80;99.90;;;;;;2602249;54;19950;-76
2023/10/31 08:02:53;;;;;;;;;;;12.30;99.90;;;;;;2603218;39;20417;-79
2023/10/31 08:05:25;;;;;;;;;;;12.40;99.90;;;;;;2602529;54;19950;-77
2023/10/31 08:07:55;;;;;;;;;;;12.40;99.90;;;;;;2613454;54;19950;-79
2023/10/31 08:10:27;;;;;;;;;;;12.40;99.90;;;;;;2612324;47;19923;-81
2023/10/31 08:12:57;;;;;;;;;;;12.40;99.90;;;;;;2613373;54;19962;-77
2023/10/31 08:15:27;;;;;;;;;;;12.40;99.90;;;;;;2611879;46;19958;-78
2023/10/31 08:17:57;;;;;;;;;;;12.50;99.90;;;;;;2598821;47;19973;-76
2023/10/31 08:20:32;;;;;;;;;;;12.50;99.90;;;;;;2599142;47;19954;-76
2023/10/31 08:23:06;;;;;;;;;;;12.50;99.90;;;;;;2599242;47;21214;-78
2023/10/31 08:25:39;;;;;;;;;;;12.50;99.90;;;;;;2597882;47;19955;-77
2023/10/31 08:28:08;;;;;;;;;;;12.50;99.90;;;;;;2598745;47;19953;-78
2023/10/31 08:30:38;;;;;;;;;;;12.50;99.90;;;;;;2598192;47;19951;-78
2023/10/31 08:33:08;;;;;;;;;;;12.60;99.90;;;;;;2597565;54;19946;-79
2023/10/31 08:35:41;;;;;;;;;;;12.60;99.90;;;;;;2599256;54;19962;-78
2023/10/31 08:38:11;;;;;;;;;;;12.60;99.90;;;;;;2596135;54;19950;-74
2023/10/31 08:40:58;;;;;;;;;;;12.60;99.90;;;;;;2597971;47;20954;-74
2023/10/31 08:43:29;;;;;;;;;;;12.50;99.90;;;;;;2597834;47;22179;-72
2023/10/31 08:45:59;;;;;;;;;;;12.50;99.90;;;;;;2595793;47;19958;-73
2023/10/31 08:48:29;;;;;;;;;;;12.50;99.90;;;;;;2597196;39;20380;-73
2023/10/31 08:50:58;;;;;;;;;;;12.50;99.90;;;;;;2596823;54;20034;-72
2023/10/31 08:53:28;;;;;;;;;;;12.50;99.90;;;;;;2597224;47;19938;-74
2023/10/31 08:56:00;;;;;;;;;;;12.50;99.90;;;;;;2595877;47;19946;-73
2023/10/31 08:58:30;;;;;;;;;;;12.50;99.90;;;;;;2601119;54;20053;-72
2023/10/31 09:01:00;;;;;;;;;;;12.50;99.90;;;;;;2594853;47;19955;-74
2023/10/31 09:03:30;;;;;;;;;;;12.50;99.90;;;;;;2595025;54;19950;-70
2023/10/31 09:06:00;;;;;;;;;;;12.60;99.90;;;;;;2595614;54;21054;-71
2023/10/31 09:08:29;;;;;;;;;;;12.60;99.90;;;;;;2595824;54;19958;-71
2023/10/31 09:11:02;;;;;;;;;;;12.60;99.90;;;;;;2597269;54;21664;-73
2023/10/31 09:13:32;;;;;;;;;;;12.60;99.90;;;;;;2595346;54;19951;-76
2023/10/31 09:16:02;;;;;;;;;;;12.70;99.90;;;;;;2595712;47;19954;-75
2023/10/31 14:20:09;;;;;;;;;;;12.70;99.90;;;;;;281273;47;1040715465;31
2023/10/31 14:22:38;;;;;;;;;;;15.00;99.90;;;;;;2615714;54;20029;-74
2023/10/31 14:25:09;;;;;;;;;;;15.00;99.90;;;;;;2614841;54;20034;-74
2023/10/31 14:27:38;;;;;;;;;;;15.10;99.90;;;;;;2616540;54;19954;-74
2023/10/31 14:30:09;;;;;;;;;;;15.10;99.90;;;;;;2615938;39;20352;-75
2023/10/31 14:32:42;;;;;;;;;;;15.10;99.90;;;;;;2606377;54;20350;-75
2023/10/31 14:35:15;;;;;;;;;;;15.10;99.90;;;;;;2612864;47;19950;-75
2023/10/31 14:37:45;;;;;;;;;;;15.00;99.90;;;;;;2614219;47;19954;-74
2023/10/31 14:40:15;;;;;;;;;;;15.00;99.90;;;;;;2617805;47;19958;-75
2023/10/31 14:42:44;;;;;;;;;;;15.00;99.90;;;;;;2617988;39;20360;-74
2023/10/31 14:45:15;;;;;;;;;;;14.90;99.90;;;;;;2616925;47;20477;-76
2023/10/31 14:47:45;;;;;;;;;;;14.90;99.90;;;;;;2617550;47;19946;-75
2023/10/31 14:50:20;;;;;;;;;;;14.80;99.90;;;;;;2618597;47;19947;-74
2023/10/31 14:52:49;;;;;;;;;;;14.80;99.90;;;;;;2619941;39;20376;-74
2023/10/31 14:55:19;;;;;;;;;;;14.70;99.90;;;;;;2619106;47;19946;-74
2023/10/31 14:57:49;;;;;;;;;;;14.70;99.90;;;;;;2613961;54;19951;-74
2023/10/31 15:00:20;;;;;;;;;;;14.70;99.90;;;;;;2611392;54;19959;-74
2023/10/31 15:02:49;;;;;;;;;;;14.60;99.90;;;;;;2618463;46;19946;-73
2023/10/31 15:05:23;;;;;;;;;;;14.70;99.90;;;;;;2608589;39;20251;-75
2023/10/31 15:07:52;;;;;;;;;;;14.70;99.90;;;;;;2610153;54;19946;-72
2023/10/31 15:10:25;;;;;;;;;;;14.70;99.90;;;;;;2620291;54;20452;-72
2023/10/31 15:12:55;;;;;;;;;;;14.70;99.90;;;;;;2619379;47;19939;-72
2023/10/31 15:15:25;;;;;;;;;;;14.60;99.90;;;;;;2619104;39;20353;-71
2023/10/31 15:17:55;;;;;;;;;;;14.60;99.90;;;;;;2619597;54;19986;-72
2023/10/31 15:20:27;;;;;;;;;;;14.50;99.90;;;;;;2619306;47;19946;-74
2023/10/31 15:22:57;;;;;;;;;;;14.50;99.90;;;;;;2618603;47;19954;-72
2023/10/31 15:25:27;;;;;;;;;;;14.40;99.90;;;;;;2618227;48;19997;-73
2023/10/31 15:27:56;;;;;;;;;;;14.40;99.90;;;;;;2620613;54;19964;-72
2023/10/31 15:30:26;;;;;;;;;;;12.90;99.90;;;;;;2620036;47;19938;-73
2023/10/31 15:32:56;;;;;;;;;;;14.30;99.90;;;;;;2619405;47;19953;-73
2023/10/31 15:35:29;;;;;;;;;;;14.30;99.90;;;;;;2620566;54;19946;-72
2023/10/31 15:37:59;;;;;;;;;;;14.60;99.90;;;;;;2620539;54;19998;-72
2023/10/31 15:43:04;;;;;;;;;;;14.30;99.90;;;;;;2603027;39;20373;-71
2023/10/31 15:45:39;;;;;;;;;;;13.10;99.90;;;;;;2616315;54;19958;-75
2023/10/31 15:50:44;;;;;;;;;;;14.30;99.90;;;;;;2613436;54;20450;-73
2023/10/31 15:53:14;;;;;;;;;;;14.30;99.90;;;;;;2616343;49;19939;-73
2023/10/31 15:55:45;;;;;;;;;;;14.30;99.90;;;;;;2615257;54;19985;-72
2023/10/31 15:58:14;;;;;;;;;;;14.30;99.90;;;;;;2623986;47;19990;-74
2023/10/31 16:00:44;;;;;;;;;;;14.20;99.90;;;;;;2627152;51;20003;-73
2023/10/31 16:03:14;;;;;;;;;;;14.30;99.90;;;;;;2619137;47;19947;-75
2023/10/31 16:05:47;;;;;;;;;;;14.20;99.90;;;;;;2626368;47;19934;-72
2023/10/31 16:08:17;;;;;;;;;;;14.20;99.90;;;;;;2620478;54;20434;-72
2023/10/31 16:10:46;;;;;;;;;;;14.30;99.90;;;;;;2616885;54;19969;-73
2023/10/31 16:13:18;;;;;;;;;;;14.10;99.90;;;;;;2616932;47;19967;-74
2023/10/31 16:15:48;;;;;;;;;;;14.20;99.90;;;;;;2616752;47;19990;-74
2023/10/31 16:18:18;;;;;;;;;;;14.20;99.90;;;;;;2616491;50;19946;-74
2023/10/31 16:20:51;;;;;;;;;;;14.20;99.90;;;;;;2614487;54;19947;-74
2023/10/31 16:23:21;;;;;;;;;;;14.20;99.90;;;;;;2615428;47;19939;-73
2023/10/31 16:25:51;;;;;;;;;;;14.10;99.90;;;;;;2615655;47;20063;-73
2023/10/31 16:28:21;;;;;;;;;;;14.20;99.90;;;;;;2614333;47;19957;-72
2023/10/31 16:30:50;;;;;;;;;;;14.10;99.90;;;;;;2615369;50;19938;-72
2023/10/31 16:33:21;;;;;;;;;;;14.10;99.90;;;;;;2615698;54;19954;-72
2023/10/31 16:35:53;;;;;;;;;;;14.10;99.90;;;;;;2614776;39;20574;-73
2023/10/31 16:38:23;;;;;;;;;;;14.10;99.90;;;;;;2617111;54;19947;-74
2023/10/31 16:40:52;;;;;;;;;;;14.00;99.90;;;;;;2616324;54;20489;-74
2023/10/31 16:43:22;;;;;;;;;;;14.00;99.90;;;;;;2614788;39;20067;-75
2023/10/31 16:45:51;;;;;;;;;;;13.90;99.90;;;;;;2614010;47;19939;-75
2023/10/31 16:48:21;;;;;;;;;;;13.90;99.90;;;;;;2616234;52;19951;-75
2023/10/31 16:50:54;;;;;;;;;;;13.90;99.90;;;;;;2616196;47;19946;-77
2023/10/31 16:53:23;;;;;;;;;;;13.90;99.90;;;;;;2615170;47;19947;-73
2023/10/31 16:55:53;;;;;;;;;;;13.90;99.90;;;;;;2616787;47;19958;-77
2023/10/31 16:58:23;;;;;;;;;;;13.90;99.90;;;;;;2616300;54;19935;-75
2023/10/31 17:00:53;;;;;;;;;;;13.80;99.90;;;;;;2616663;54;19943;-74
2023/10/31 17:03:22;;;;;;;;;;;13.80;99.90;;;;;;2616386;47;19951;-75
2023/10/31 17:05:55;;;;;;;;;;;13.80;99.90;;;;;;2615786;47;20038;-74
2023/10/31 17:08:25;;;;;;;;;;;13.80;99.90;;;;;;2617395;47;19973;-75
2023/10/31 17:10:54;;;;;;;;;;;13.80;99.90;;;;;;2616487;54;20039;-76
2023/10/31 17:13:25;;;;;;;;;;;13.80;99.90;;;;;;2613443;54;19939;-72
2023/10/31 17:15:55;;;;;;;;;;;13.80;99.90;;;;;;2614852;39;20365;-77
2023/10/31 17:18:26;;;;;;;;;;;13.80;99.90;;;;;;2615513;54;19966;-74
2023/10/31 17:20:58;;;;;;;;;;;13.80;99.90;;;;;;2615321;54;19954;-77
2023/10/31 17:23:30;;;;;;;;;;;13.80;99.90;;;;;;2616160;54;19953;-76
2023/10/31 17:26:00;;;;;;;;;;;13.80;99.90;;;;;;2613923;54;20034;-75
2023/10/31 17:28:31;;;;;;;;;;;13.80;99.90;;;;;;2620569;47;19994;-82
2023/10/31 17:31:01;;;;;;;;;;;13.80;99.90;;;;;;2618966;31;20596;-75
2023/10/31 17:33:30;;;;;;;;;;;13.80;99.90;;;;;;2617559;47;19958;-76
2023/10/31 17:36:03;;;;;;;;;;;13.80;99.90;;;;;;2617913;31;20477;-75
2023/10/31 17:38:32;;;;;;;;;;;13.80;99.90;;;;;;2599602;47;19951;-79
2023/10/31 17:41:02;;;;;;;;;;;13.80;99.90;;;;;;2601000;47;20077;-79
2023/10/31 17:43:32;;;;;;;;;;;13.70;99.90;;;;;;2600806;47;20758;-72
2023/10/31 17:46:02;;;;;;;;;;;13.70;99.90;;;;;;2600161;54;19947;-77
2023/10/31 17:48:31;;;;;;;;;;;13.70;99.90;;;;;;2604435;54;20485;-77
2023/10/31 17:51:04;;;;;;;;;;;13.80;99.90;;;;;;2604936;54;19954;-78
2023/10/31 17:53:34;;;;;;;;;;;13.80;99.90;;;;;;2605525;54;19946;-77
2023/10/31 17:56:03;;;;;;;;;;;14.00;99.90;;;;;;2607833;39;20401;-78
2023/10/31 17:58:33;;;;;;;;;;;12.90;99.90;;;;;;2604234;47;20797;-77
2023/10/31 18:01:03;;;;;;;;;;;13.80;99.90;;;;;;2602891;39;20385;-76
2023/10/31 18:03:33;;;;;;;;;;;13.80;99.90;;;;;;2602811;54;19958;-76
2023/10/31 18:06:06;;;;;;;;;;;15.20;99.90;;;;;;2601440;54;19955;-74
2023/10/31 18:08:35;;;;;;;;;;;13.80;99.90;;;;;;2600833;47;19947;-75
2023/10/31 18:11:05;;;;;;;;;;;13.80;99.90;;;;;;2600891;54;19950;-72
2023/10/31 18:13:35;;;;;;;;;;;13.80;99.90;;;;;;2601715;54;19998;-75
2023/10/31 18:16:05;;;;;;;;;;;13.80;99.90;;;;;;2602188;47;19977;-75
2023/10/31 18:18:37;;;;;;;;;;;13.80;99.90;;;;;;2599725;46;19969;-75
2023/10/31 18:21:09;;;;;;;;;;;13.70;99.90;;;;;;2601429;47;20473;-76
2023/10/31 18:23:39;;;;;;;;;;;15.00;99.90;;;;;;2599490;47;19947;-75
2023/10/31 18:26:11;;;;;;;;;;;13.70;99.90;;;;;;2599864;47;19999;-75
2023/10/31 18:28:42;;;;;;;;;;;13.70;99.90;;;;;;2602440;51;19953;-77
2023/10/31 18:31:12;;;;;;;;;;;13.70;99.90;;;;;;2606860;47;19953;-76
2023/10/31 18:33:41;;;;;;;;;;;13.80;99.90;;;;;;2607257;54;19946;-76
2023/10/31 18:36:14;;;;;;;;;;;14.30;99.90;;;;;;2609010;54;19958;-77
2023/10/31 18:39:00;;;;;;;;;;;13.80;99.90;;;;;;2608296;47;20006;-75
2023/10/31 18:41:31;;;;;;;;;;;13.80;99.90;;;;;;2607460;47;22681;-74
2023/10/31 18:44:01;;;;;;;;;;;13.80;99.90;;;;;;2606721;47;19950;-75
2023/10/31 18:46:51;;;;;;;;;;;13.70;99.90;;;;;;2598782;54;19966;-76
2023/10/31 18:49:21;;;;;;;;;;;14.20;99.90;;;;;;2601921;54;19950;-77
2023/10/31 18:51:54;;;;;;;;;;;13.70;99.90;;;;;;2600781;54;19954;-76
2023/10/31 18:54:23;;;;;;;;;;;13.70;99.90;;;;;;2600372;47;19970;-73
2023/10/31 18:56:56;;;;;;;;;;;13.70;99.90;;;;;;2600002;47;19950;-77
2023/10/31 18:59:26;;;;;;;;;;;13.80;99.90;;;;;;2602726;47;20765;-78
2023/10/31 19:01:58;;;;;;;;;;;13.70;99.90;;;;;;2605313;47;19950;-79
2023/10/31 19:04:28;;;;;;;;;;;13.70;99.90;;;;;;2614616;47;19945;-85
2023/10/31 19:07:01;;;;;;;;;;;13.70;99.90;;;;;;2611663;39;20734;-80
2023/10/31 19:09:30;;;;;;;;;;;13.70;99.90;;;;;;2604619;47;20634;-78
2023/10/31 19:12:00;;;;;;;;;;;13.70;99.90;;;;;;2607489;47;19941;-85
2023/10/31 19:14:31;;;;;;;;;;;13.60;99.90;;;;;;2613331;39;20692;-83
2023/10/31 19:17:01;;;;;;;;;;;13.70;99.90;;;;;;2610883;47;21140;-79
2023/10/31 19:19:30;;;;;;;;;;;13.60;99.90;;;;;;2609745;47;20002;-81
2023/10/31 19:22:03;;;;;;;;;;;13.60;99.90;;;;;;2605331;47;19954;-82
2023/10/31 19:24:32;;;;;;;;;;;13.60;99.90;;;;;;2605612;47;19946;-80
2023/10/31 19:27:02;;;;;;;;;;;13.60;99.90;;;;;;2604386;47;19973;-83
2023/10/31 19:29:32;;;;;;;;;;;13.50;99.90;;;;;;2601237;47;19947;-79
2023/10/31 19:32:02;;;;;;;;;;;13.60;99.90;;;;;;2601538;39;20361;-78
2023/10/31 19:34:32;;;;;;;;;;;13.50;99.90;;;;;;2604298;47;19954;-75
2023/10/31 19:37:04;;;;;;;;;;;13.50;99.90;;;;;;2598661;46;19969;-78
2023/10/31 19:39:35;;;;;;;;;;;13.50;99.90;;;;;;2601933;47;19942;-72
2023/10/31 19:42:05;;;;;;;;;;;13.50;99.90;;;;;;2600399;47;19958;-75
2023/10/31 19:44:35;;;;;;;;;;;13.50;99.90;;;;;;2605555;47;19947;-73
2023/10/31 19:47:05;;;;;;;;;;;13.40;99.90;;;;;;2609815;54;19982;-77
2023/10/31 19:49:35;;;;;;;;;;;13.40;99.90;;;;;;2612194;54;19950;-77
2023/10/31 19:52:08;;;;;;;;;;;13.40;99.90;;;;;;2603352;46;20082;-76
2023/10/31 19:54:37;;;;;;;;;;;13.40;99.90;;;;;;2605389;39;20460;-75
2023/10/31 19:57:07;;;;;;;;;;;13.40;99.90;;;;;;2605622;54;20021;-76
2023/10/31 19:59:40;;;;;;;;;;;13.40;99.90;;;;;;2607517;47;20491;-75
2023/10/31 20:02:10;;;;;;;;;;;13.40;99.90;;;;;;2607331;47;19981;-78
2023/10/31 20:04:39;;;;;;;;;;;13.40;99.90;;;;;;2609890;47;19942;-79
2023/10/31 20:07:12;;;;;;;;;;;13.40;99.90;;;;;;2610068;47;20025;-76
2023/10/31 20:09:42;;;;;;;;;;;13.40;99.90;;;;;;2610982;54;19934;-78
2023/10/31 20:12:12;;;;;;;;;;;13.40;99.90;;;;;;2611317;54;20018;-73
2023/10/31 20:14:41;;;;;;;;;;;13.40;99.90;;;;;;2608447;54;19946;-76
2023/10/31 20:17:31;;;;;;;;;;;13.40;99.90;;;;;;2607182;54;19957;-77
2023/10/31 20:20:02;;;;;;;;;;;13.30;99.90;;;;;;2614373;47;19947;-79
2023/10/31 20:22:34;;;;;;;;;;;13.30;99.90;;;;;;2628147;54;19955;-81
2023/10/31 20:25:04;;;;;;;;;;;13.30;99.90;;;;;;2628782;47;19959;-83
2023/10/31 20:27:34;;;;;;;;;;;13.40;99.90;;;;;;2626346;47;19951;-80
2023/10/31 20:30:04;;;;;;;;;;;13.30;99.90;;;;;;2627683;47;19938;-82
2023/10/31 20:32:36;;;;;;;;;;;13.30;99.90;;;;;;2630136;46;20497;-85
2023/10/31 20:35:06;;;;;;;;;;;13.30;99.90;;;;;;2628273;47;19946;-82
2023/10/31 20:37:39;;;;;;;;;;;13.20;99.90;;;;;;2630026;46;19930;-84
2023/10/31 20:40:09;;;;;;;;;;;13.30;99.90;;;;;;2625233;47;19985;-82
2023/10/31 20:42:39;;;;;;;;;;;13.20;99.90;;;;;;2625540;54;20003;-78
2023/10/31 20:45:09;;;;;;;;;;;13.20;99.90;;;;;;2622792;39;20464;-79
2023/10/31 20:47:39;;;;;;;;;;;13.20;99.90;;;;;;2622505;47;20006;-75
2023/10/31 20:50:09;;;;;;;;;;;13.20;99.90;;;;;;2623735;39;20366;-75
2023/10/31 20:52:41;;;;;;;;;;;13.10;99.90;;;;;;2624378;54;19971;-73
2023/10/31 20:55:11;;;;;;;;;;;13.10;99.90;;;;;;2627861;54;19994;-82
2023/10/31 20:57:41;;;;;;;;;;;13.20;99.90;;;;;;2629087;47;19973;-83
2023/10/31 21:00:11;;;;;;;;;;;13.20;99.90;;;;;;2629892;47;20549;-83
2023/10/31 21:02:41;;;;;;;;;;;13.10;99.90;;;;;;2630279;47;19931;-83
2023/10/31 21:05:12;;;;;;;;;;;13.10;99.90;;;;;;2629520;47;19948;-85
2023/10/31 21:07:45;;;;;;;;;;;13.10;99.90;;;;;;2630553;47;19942;-85
2023/10/31 21:10:14;;;;;;;;;;;13.10;99.90;;;;;;2630409;47;19934;-82
2023/10/31 21:12:44;;;;;;;;;;;13.00;99.90;;;;;;2630207;47;19927;-86
2023/10/31 21:15:14;;;;;;;;;;;13.10;99.90;;;;;;2630207;54;19930;-85
2023/10/31 21:17:44;;;;;;;;;;;13.00;99.90;;;;;;2630446;54;19978;-82
2023/10/31 21:20:14;;;;;;;;;;;13.50;99.90;;;;;;2628580;54;19951;-81
2023/10/31 21:22:46;;;;;;;;;;;13.10;99.90;;;;;;2629239;47;19977;-81
2023/10/31 21:25:17;;;;;;;;;;;13.10;99.90;;;;;;2629831;47;19943;-84
2023/10/31 21:27:48;;;;;;;;;;;13.00;99.90;;;;;;2629672;47;19927;-84
2023/10/31 21:30:19;;;;;;;;;;;13.10;99.90;;;;;;2630113;47;19938;-82
2023/10/31 21:32:49;;;;;;;;;;;13.00;99.90;;;;;;2630616;47;19947;-80
2023/10/31 21:35:19;;;;;;;;;;;13.00;99.90;;;;;;2628120;47;19939;-81
2023/10/31 21:37:51;;;;;;;;;;;13.00;99.90;;;;;;2629677;47;19943;-81
2023/10/31 21:40:21;;;;;;;;;;;13.00;99.90;;;;;;2630670;47;19939;-82
2023/10/31 21:42:51;;;;;;;;;;;13.00;99.90;;;;;;2629528;54;19966;-80
2023/10/31 21:45:21;;;;;;;;;;;13.00;99.90;;;;;;2626440;54;19982;-74
2023/10/31 21:47:51;;;;;;;;;;;12.90;99.90;;;;;;2623150;54;20038;-79
2023/10/31 21:50:21;;;;;;;;;;;13.00;99.90;;;;;;2622130;54;19942;-79
2023/10/31 21:52:53;;;;;;;;;;;13.00;99.90;;;;;;2619130;47;19963;-80
2023/10/31 21:55:23;;;;;;;;;;;13.00;99.90;;;;;;2621935;54;19960;-79
2023/10/31 21:57:53;;;;;;;;;;;13.00;99.90;;;;;;2621488;54;19962;-79